createdAt,value
2022-09-22T04:00:32.259Z,0.00
2022-09-22T04:01:32.245Z,0.00
2022-09-22T04:02:32.221Z,0.00
2022-09-22T04:03:32.172Z,0.00
2022-09-22T04:04:32.173Z,0.00
2022-09-22T04:05:32.147Z,0.00
2022-09-22T04:06:32.135Z,0.00
2022-09-22T04:07:32.122Z,0.00
2022-09-22T04:08:32.113Z,0.00
2022-09-22T04:09:32.121Z,0.00
2022-09-22T04:10:32.094Z,0.00
2022-09-22T04:11:37.111Z,0.00
2022-09-22T04:12:32.069Z,0.00
2022-09-22T04:13:32.054Z,0.00
2022-09-22T04:14:32.074Z,0.00
2022-09-22T04:15:32.049Z,0.00
2022-09-22T04:16:32.096Z,0.00
2022-09-22T04:17:32.010Z,0.00
2022-09-22T04:18:31.998Z,0.00
2022-09-22T04:19:31.995Z,0.00
2022-09-22T04:20:31.987Z,0.00
2022-09-22T04:21:31.964Z,0.00
2022-09-22T04:22:36.984Z,0.00
2022-09-22T04:23:31.942Z,0.00
2022-09-22T04:24:31.941Z,0.00
2022-09-22T04:25:31.925Z,0.00
2022-09-22T04:26:31.923Z,0.00
2022-09-22T04:27:31.896Z,0.00
2022-09-22T04:28:31.887Z,0.00
2022-09-22T04:29:31.883Z,0.00
2022-09-22T04:30:31.925Z,0.00
2022-09-22T04:31:31.852Z,0.00
2022-09-22T04:32:31.862Z,0.00
2022-09-22T04:33:36.853Z,0.00
2022-09-22T04:34:31.838Z,0.00
2022-09-22T04:35:31.809Z,0.00
2022-09-22T04:36:31.795Z,0.00
2022-09-22T04:37:31.789Z,0.00
2022-09-22T04:38:31.780Z,0.00
2022-09-22T04:39:31.772Z,0.00
2022-09-22T04:40:31.801Z,0.00
2022-09-22T04:41:31.737Z,0.00
2022-09-22T04:42:31.837Z,0.00
2022-09-22T04:43:31.716Z,0.00
2022-09-22T04:44:36.791Z,0.00
2022-09-22T04:45:34.955Z,0.00
2022-09-22T04:46:32.802Z,0.00
2022-09-22T04:47:31.686Z,4.00
2022-09-22T04:48:31.678Z,4.00
2022-09-22T04:49:31.665Z,0.00
2022-09-22T04:50:31.636Z,4.00
2022-09-22T04:51:31.630Z,0.00
2022-09-22T04:52:31.614Z,4.00
2022-09-22T04:53:31.625Z,4.00
2022-09-22T04:54:31.599Z,4.00
2022-09-22T04:55:36.608Z,4.00
2022-09-22T04:56:31.570Z,4.00
2022-09-22T04:57:31.555Z,8.00
2022-09-22T04:58:31.546Z,8.00
2022-09-22T04:59:31.551Z,12.00
2022-09-22T05:00:31.529Z,8.00
2022-09-22T05:01:31.558Z,12.00
2022-09-22T05:02:31.507Z,16.00
2022-09-22T05:03:31.518Z,16.00
2022-09-22T05:04:31.546Z,20.00
2022-09-22T05:05:31.475Z,20.00
2022-09-22T05:06:36.486Z,24.00
2022-09-22T05:07:31.442Z,24.00
2022-09-22T05:08:31.434Z,28.00
2022-09-22T05:09:31.437Z,32.00
2022-09-22T05:10:31.411Z,36.00
2022-09-22T05:11:31.395Z,44.00
2022-09-22T05:12:31.386Z,44.00
2022-09-22T05:13:31.375Z,52.00
2022-09-22T05:14:31.384Z,56.00
2022-09-22T05:15:31.361Z,60.00
2022-09-22T05:16:31.438Z,68.00
2022-09-22T05:17:36.349Z,72.00
2022-09-22T05:18:31.353Z,80.00
2022-09-22T05:19:31.305Z,84.00
2022-09-22T05:20:31.374Z,92.00
2022-09-22T05:21:31.283Z,100.00
2022-09-22T05:22:31.274Z,104.00
2022-09-22T05:23:31.264Z,108.00
2022-09-22T05:24:31.355Z,116.00
2022-09-22T05:25:31.251Z,124.00
2022-09-22T05:26:31.228Z,128.00
2022-09-22T05:27:31.215Z,136.00
2022-09-22T05:28:36.228Z,144.00
2022-09-22T05:29:31.206Z,156.00
2022-09-22T05:30:31.186Z,160.00
2022-09-22T05:31:31.257Z,168.00
2022-09-22T05:32:31.162Z,176.00
2022-09-22T05:33:31.149Z,184.00
2022-09-22T05:34:37.331Z,192.00
2022-09-22T05:35:35.949Z,200.00
2022-09-22T05:36:32.132Z,208.00
2022-09-22T05:37:31.102Z,216.00
2022-09-22T05:38:31.090Z,224.00
2022-09-22T05:39:36.109Z,236.00
2022-09-22T05:40:31.166Z,244.00
2022-09-22T05:41:31.057Z,252.00
2022-09-22T05:42:31.051Z,260.00
2022-09-22T05:43:31.032Z,264.00
2022-09-22T05:44:31.024Z,272.00
2022-09-22T05:45:31.108Z,280.00
2022-09-22T05:46:31.005Z,292.00
2022-09-22T05:47:30.987Z,300.00
2022-09-22T05:48:31.658Z,304.00
2022-09-22T05:49:30.965Z,312.00
2022-09-22T05:50:36.367Z,320.00
2022-09-22T05:51:30.942Z,328.00
2022-09-22T05:52:30.963Z,332.00
2022-09-22T05:53:30.925Z,340.00
2022-09-22T05:54:30.912Z,348.00
2022-09-22T05:55:30.911Z,356.00
2022-09-22T05:56:30.887Z,364.00
2022-09-22T05:57:30.881Z,372.00
2022-09-22T05:58:30.869Z,376.00
2022-09-22T05:59:31.034Z,384.00
2022-09-22T06:00:30.892Z,392.00
2022-09-22T06:01:35.851Z,396.00
2022-09-22T06:02:30.872Z,404.00
2022-09-22T06:03:30.815Z,416.00
2022-09-22T06:04:30.798Z,420.00
2022-09-22T06:05:30.801Z,432.00
2022-09-22T06:06:30.774Z,432.00
2022-09-22T06:07:30.844Z,444.00
2022-09-22T06:08:30.870Z,448.00
2022-09-22T06:09:30.739Z,452.00
2022-09-22T06:10:30.744Z,460.00
2022-09-22T06:11:30.727Z,468.00
2022-09-22T06:12:35.728Z,476.00
2022-09-22T06:13:30.695Z,484.00
2022-09-22T06:14:30.686Z,484.00
2022-09-22T06:15:30.684Z,492.00
2022-09-22T06:16:30.856Z,496.00
2022-09-22T06:17:30.652Z,504.00
2022-09-22T06:18:30.655Z,516.00
2022-09-22T06:19:30.627Z,520.00
2022-09-22T06:20:30.627Z,524.00
2022-09-22T06:21:30.604Z,532.00
2022-09-22T06:22:30.778Z,536.00
2022-09-22T06:23:39.364Z,544.00
2022-09-22T06:24:31.586Z,548.00
2022-09-22T06:25:30.573Z,552.00
2022-09-22T06:26:30.565Z,560.00
2022-09-22T06:27:30.537Z,568.00
2022-09-22T06:28:30.530Z,568.00
2022-09-22T06:29:30.515Z,576.00
2022-09-22T06:30:30.527Z,580.00
2022-09-22T06:31:30.508Z,588.00
2022-09-22T06:32:30.503Z,592.00
2022-09-22T06:33:30.518Z,600.00
2022-09-22T06:34:35.484Z,604.00
2022-09-22T06:35:30.459Z,612.00
2022-09-22T06:36:30.447Z,612.00
2022-09-22T06:37:30.428Z,616.00
2022-09-22T06:38:30.417Z,620.00
2022-09-22T06:39:30.423Z,628.00
2022-09-22T06:40:30.477Z,632.00
2022-09-22T06:41:30.383Z,636.00
2022-09-22T06:42:30.393Z,640.00
2022-09-22T06:43:30.357Z,648.00
2022-09-22T06:44:30.345Z,652.00
2022-09-22T06:45:35.508Z,656.00
2022-09-22T06:46:30.325Z,664.00
2022-09-22T06:47:30.313Z,668.00
2022-09-22T06:48:30.304Z,668.00
2022-09-22T06:49:30.291Z,672.00
2022-09-22T06:50:30.764Z,676.00
2022-09-22T06:51:30.351Z,688.00
2022-09-22T06:52:30.255Z,688.00
2022-09-22T06:53:30.262Z,692.00
2022-09-22T06:54:30.232Z,700.00
2022-09-22T06:55:30.253Z,704.00
2022-09-22T06:56:37.004Z,712.00
2022-09-22T06:57:30.202Z,716.00
2022-09-22T06:58:38.607Z,724.00
2022-09-22T06:59:31.177Z,732.00
2022-09-22T07:00:30.320Z,740.00
2022-09-22T07:01:30.528Z,748.00
2022-09-22T07:02:30.150Z,756.00
2022-09-22T07:03:30.137Z,760.00
2022-09-22T07:04:30.122Z,768.00
2022-09-22T07:05:30.120Z,768.00
2022-09-22T07:06:30.095Z,772.00
2022-09-22T07:07:35.111Z,776.00
2022-09-22T07:08:30.073Z,788.00
2022-09-22T07:09:30.062Z,792.00
2022-09-22T07:10:30.063Z,800.00
2022-09-22T07:11:30.119Z,804.00
2022-09-22T07:12:30.028Z,812.00
2022-09-22T07:13:30.019Z,812.00
2022-09-22T07:14:30.007Z,820.00
2022-09-22T07:15:30.003Z,828.00
2022-09-22T07:16:30.090Z,832.00
2022-09-22T07:17:30.006Z,836.00
2022-09-22T07:18:34.983Z,844.00
2022-09-22T07:19:29.948Z,848.00
2022-09-22T07:20:29.957Z,852.00
2022-09-22T07:21:29.940Z,856.00
2022-09-22T07:22:29.922Z,864.00
2022-09-22T07:23:29.904Z,868.00
2022-09-22T07:24:29.903Z,872.00
2022-09-22T07:25:29.881Z,880.00
2022-09-22T07:26:29.896Z,884.00
2022-09-22T07:27:29.888Z,892.00
2022-09-22T07:28:29.845Z,896.00
2022-09-22T07:29:34.861Z,900.00
2022-09-22T07:30:29.824Z,908.00
2022-09-22T07:31:29.881Z,916.00
2022-09-22T07:32:29.799Z,932.00
2022-09-22T07:33:29.796Z,948.00
2022-09-22T07:34:29.775Z,964.00
2022-09-22T07:35:29.766Z,988.00
2022-09-22T07:36:29.770Z,1012.00
2022-09-22T07:37:29.758Z,1044.00
2022-09-22T07:38:29.733Z,1104.00
2022-09-22T07:39:29.721Z,1184.00
2022-09-22T07:40:34.777Z,1324.00
2022-09-22T07:41:29.700Z,1560.00
2022-09-22T07:42:29.703Z,2084.00
2022-09-22T07:43:29.695Z,2636.00
2022-09-22T07:44:29.666Z,3732.00
2022-09-22T07:45:29.651Z,4916.00
2022-09-22T07:46:29.709Z,4088.00
2022-09-22T07:47:29.630Z,2848.00
2022-09-22T07:48:29.619Z,2632.00
2022-09-22T07:49:29.651Z,2172.00
2022-09-22T07:50:29.720Z,2608.00
2022-09-22T07:51:34.634Z,2584.00
2022-09-22T07:52:29.572Z,2640.00
2022-09-22T07:53:29.588Z,2480.00
2022-09-22T07:54:29.549Z,1940.00
2022-09-22T07:55:29.701Z,2016.00
2022-09-22T07:56:29.540Z,2268.00
2022-09-22T07:57:29.525Z,2644.00
2022-09-22T07:58:29.506Z,3024.00
2022-09-22T07:59:29.536Z,4064.00
2022-09-22T08:00:29.596Z,5868.00
2022-09-22T08:01:29.509Z,5700.00
2022-09-22T08:02:34.538Z,4436.00
2022-09-22T08:03:29.449Z,2936.00
2022-09-22T08:04:29.441Z,2032.00
2022-09-22T08:05:29.447Z,1968.00
2022-09-22T08:06:29.425Z,1664.00
2022-09-22T08:07:29.406Z,1440.00
2022-09-22T08:08:29.391Z,1368.00
2022-09-22T08:09:29.383Z,1532.00
2022-09-22T08:10:29.379Z,2252.00
2022-09-22T08:11:29.368Z,2244.00
2022-09-22T08:12:29.345Z,1996.00
2022-09-22T08:13:34.376Z,1436.00
2022-09-22T08:14:29.338Z,1516.00
2022-09-22T08:15:29.336Z,1496.00
2022-09-22T08:16:29.340Z,1500.00
2022-09-22T08:17:29.302Z,1400.00
2022-09-22T08:18:29.289Z,1508.00
2022-09-22T08:19:29.272Z,1680.00
2022-09-22T08:20:29.387Z,1588.00
2022-09-22T08:21:29.260Z,1296.00
2022-09-22T08:22:29.254Z,1288.00
2022-09-22T08:23:29.237Z,1328.00
2022-09-22T08:24:34.234Z,1460.00
2022-09-22T08:25:29.204Z,1744.00
2022-09-22T08:26:29.229Z,2244.00
2022-09-22T08:27:29.187Z,2952.00
2022-09-22T08:28:29.167Z,4020.00
2022-09-22T08:29:29.157Z,5676.00
2022-09-22T08:30:29.144Z,7256.00
2022-09-22T08:31:29.235Z,5672.00
2022-09-22T08:32:29.143Z,2684.00
2022-09-22T08:33:29.115Z,1756.00
2022-09-22T08:34:29.137Z,1752.00
2022-09-22T08:35:34.139Z,1660.00
2022-09-22T08:36:29.075Z,1384.00
2022-09-22T08:37:29.083Z,1364.00
2022-09-22T08:38:29.114Z,1580.00
2022-09-22T08:39:29.046Z,1532.00
2022-09-22T08:40:29.127Z,1668.00
2022-09-22T08:41:29.033Z,1872.00
2022-09-22T08:42:29.052Z,2304.00
2022-09-22T08:43:29.012Z,2544.00
2022-09-22T08:44:28.984Z,2384.00
2022-09-22T08:45:28.975Z,2392.00
2022-09-22T08:46:34.351Z,2264.00
2022-09-22T08:47:29.100Z,2312.00
2022-09-22T08:48:28.951Z,2856.00
2022-09-22T08:49:28.930Z,3208.00
2022-09-22T08:50:28.915Z,2376.00
2022-09-22T08:51:28.907Z,2352.00
2022-09-22T08:52:28.905Z,2288.00
2022-09-22T08:53:28.885Z,2136.00
2022-09-22T08:54:28.874Z,2096.00
2022-09-22T08:55:28.868Z,1720.00
2022-09-22T08:56:28.849Z,1664.00
2022-09-22T08:57:33.869Z,1580.00
2022-09-22T08:58:28.825Z,1600.00
2022-09-22T08:59:28.824Z,1664.00
2022-09-22T09:00:28.947Z,1444.00
2022-09-22T09:01:28.904Z,1440.00
2022-09-22T09:02:28.857Z,1448.00
2022-09-22T09:03:28.781Z,1448.00
2022-09-22T09:04:28.791Z,1492.00
2022-09-22T09:05:28.755Z,1628.00
2022-09-22T09:06:28.879Z,1684.00
2022-09-22T09:07:28.811Z,1596.00
2022-09-22T09:08:33.747Z,1500.00
2022-09-22T09:09:28.709Z,1432.00
2022-09-22T09:10:28.748Z,1412.00
2022-09-22T09:11:28.692Z,1420.00
2022-09-22T09:12:28.671Z,1440.00
2022-09-22T09:13:28.848Z,1448.00
2022-09-22T09:14:28.644Z,1428.00
2022-09-22T09:15:28.637Z,1468.00
2022-09-22T09:16:28.708Z,1500.00
2022-09-22T09:17:28.625Z,1616.00
2022-09-22T09:18:28.641Z,1644.00
2022-09-22T09:19:33.617Z,1688.00
2022-09-22T09:20:28.658Z,1836.00
2022-09-22T09:21:28.624Z,2132.00
2022-09-22T09:22:28.570Z,2212.00
2022-09-22T09:25:22.126Z,2296.00
2022-09-22T09:25:29.525Z,2536.00
2022-09-22T09:26:28.531Z,2628.00
2022-09-22T09:27:28.530Z,3212.00
2022-09-22T09:28:28.532Z,3876.00
2022-09-22T09:29:28.505Z,3896.00
2022-09-22T09:30:33.522Z,3104.00
2022-09-22T09:31:28.484Z,3352.00
2022-09-22T09:32:28.453Z,4656.00
2022-09-22T09:33:28.431Z,4468.00
2022-09-22T09:34:28.857Z,2176.00
2022-09-22T09:35:28.414Z,1896.00
2022-09-22T09:36:28.398Z,2036.00
2022-09-22T09:37:28.393Z,1952.00
2022-09-22T09:38:28.385Z,2036.00
2022-09-22T09:39:28.365Z,2508.00
2022-09-22T09:40:28.479Z,2092.00
2022-09-22T09:41:33.395Z,1596.00
2022-09-22T09:42:28.429Z,1568.00
2022-09-22T09:43:28.325Z,1524.00
2022-09-22T09:44:28.318Z,1644.00
2022-09-22T09:45:28.357Z,2288.00
2022-09-22T09:46:28.328Z,1756.00
2022-09-22T09:47:28.283Z,2040.00
2022-09-22T09:48:28.293Z,1924.00
2022-09-22T09:49:28.249Z,2032.00
2022-09-22T09:50:28.420Z,1808.00
2022-09-22T09:51:28.373Z,1660.00
2022-09-22T09:52:33.253Z,1696.00
2022-09-22T09:53:28.220Z,1732.00
2022-09-22T09:54:28.202Z,1616.00
2022-09-22T09:55:28.214Z,1948.00
2022-09-22T09:56:28.197Z,1572.00
2022-09-22T09:57:28.338Z,1448.00
2022-09-22T09:58:28.178Z,1452.00
2022-09-22T09:59:28.188Z,1464.00
2022-09-22T10:00:28.144Z,1452.00
2022-09-22T10:01:28.175Z,1512.00
2022-09-22T10:02:28.107Z,1528.00
2022-09-22T10:03:33.152Z,1472.00
2022-09-22T10:04:28.089Z,1692.00
2022-09-22T10:05:28.078Z,1728.00
2022-09-22T10:06:28.098Z,1668.00
2022-09-22T10:07:28.115Z,2444.00
2022-09-22T10:08:28.049Z,1780.00
2022-09-22T10:09:28.031Z,1556.00
2022-09-22T10:10:28.028Z,1524.00
2022-09-22T10:11:28.016Z,2000.00
2022-09-22T10:12:27.989Z,1904.00
2022-09-22T10:13:27.981Z,1484.00
2022-09-22T10:14:32.991Z,1504.00
2022-09-22T10:15:27.958Z,1496.00
2022-09-22T10:16:27.958Z,1500.00
2022-09-22T10:17:27.947Z,1512.00
2022-09-22T10:18:27.920Z,1528.00
2022-09-22T10:19:27.907Z,1556.00
2022-09-22T10:20:27.895Z,1548.00
2022-09-22T10:21:27.910Z,1532.00
2022-09-22T10:22:27.896Z,1532.00
2022-09-22T10:23:27.879Z,1548.00
2022-09-22T10:24:27.862Z,1536.00
2022-09-22T10:25:32.863Z,1576.00
2022-09-22T10:26:27.845Z,1596.00
2022-09-22T10:27:27.850Z,2140.00
2022-09-22T10:28:27.804Z,4932.00
2022-09-22T10:29:27.802Z,1784.00
2022-09-22T10:30:27.783Z,1820.00
2022-09-22T10:31:27.889Z,10408.00
2022-09-22T10:32:27.780Z,12196.00
2022-09-22T10:33:27.747Z,5308.00
2022-09-22T10:34:27.737Z,3616.00
2022-09-22T10:35:27.741Z,12208.00
2022-09-22T10:36:32.764Z,58464.00
2022-09-22T10:37:27.722Z,42176.00
2022-09-22T10:38:27.780Z,31840.00
2022-09-22T10:39:27.683Z,30592.00
2022-09-22T10:40:27.736Z,10244.00
2022-09-22T10:41:27.736Z,7660.00
2022-09-22T10:42:27.645Z,7120.00
2022-09-22T10:43:27.646Z,9204.00
2022-09-22T10:44:38.646Z,3952.00
2022-09-22T10:45:28.911Z,6908.00
2022-09-22T10:46:27.700Z,11464.00
2022-09-22T10:47:32.615Z,14416.00
2022-09-22T10:48:27.578Z,2552.00
2022-09-22T10:49:27.579Z,2440.00
2022-09-22T10:50:27.569Z,1964.00
2022-09-22T10:51:27.625Z,2108.00
2022-09-22T10:52:27.534Z,2524.00
2022-09-22T10:53:27.526Z,3312.00
2022-09-22T10:54:27.530Z,1896.00
2022-09-22T10:55:27.520Z,2148.00
2022-09-22T10:56:27.523Z,2132.00
2022-09-22T10:57:27.488Z,1800.00
2022-09-22T10:58:32.492Z,2328.00
2022-09-22T10:59:27.464Z,1928.00
2022-09-22T11:00:27.444Z,1892.00
2022-09-22T11:01:27.529Z,1812.00
2022-09-22T11:02:27.461Z,1764.00
2022-09-22T11:03:27.420Z,1756.00
2022-09-22T11:04:27.472Z,2960.00
2022-09-22T11:05:27.389Z,3664.00
2022-09-22T11:06:27.405Z,9168.00
2022-09-22T11:07:27.366Z,12720.00
2022-09-22T11:08:27.356Z,5104.00
2022-09-22T11:09:32.502Z,1696.00
2022-09-22T11:10:27.329Z,5528.00
2022-09-22T11:11:27.339Z,8360.00
2022-09-22T11:12:27.329Z,3032.00
2022-09-22T11:13:27.302Z,2068.00
2022-09-22T11:14:27.292Z,2548.00
2022-09-22T11:15:27.357Z,2040.00
2022-09-22T11:16:27.300Z,3912.00
2022-09-22T11:17:27.250Z,2080.00
2022-09-22T11:18:27.268Z,1960.00
2022-09-22T11:19:27.256Z,2372.00
2022-09-22T11:20:32.275Z,2176.00
2022-09-22T11:21:27.234Z,7648.00
2022-09-22T11:22:27.194Z,6332.00
2022-09-22T11:23:27.181Z,14272.00
2022-09-22T11:24:27.190Z,11040.00
2022-09-22T11:25:27.190Z,3732.00
2022-09-22T11:26:27.178Z,2764.00
2022-09-22T11:27:27.135Z,2980.00
2022-09-22T11:28:27.160Z,19136.00
2022-09-22T11:29:27.119Z,21632.00
2022-09-22T11:30:27.107Z,25600.00
2022-09-22T11:31:32.192Z,17696.00
2022-09-22T11:32:27.102Z,4800.00
2022-09-22T11:33:27.090Z,1808.00
2022-09-22T11:34:27.072Z,1720.00
2022-09-22T11:35:27.053Z,2328.00
2022-09-22T11:36:27.053Z,2148.00
2022-09-22T11:37:27.042Z,5040.00
2022-09-22T11:38:27.012Z,2280.00
2022-09-22T11:39:27.007Z,2488.00
2022-09-22T11:40:27.044Z,6080.00
2022-09-22T11:41:26.998Z,8304.00
2022-09-22T11:42:32.010Z,5468.00
2022-09-22T11:43:26.965Z,23872.00
2022-09-22T11:44:26.952Z,5436.00
2022-09-22T11:45:26.937Z,9132.00
2022-09-22T11:46:26.985Z,6564.00
2022-09-22T11:47:26.994Z,1600.00
2022-09-22T11:48:26.900Z,1612.00
2022-09-22T11:49:26.892Z,1608.00
2022-09-22T11:50:27.025Z,1572.00
2022-09-22T11:51:26.928Z,1628.00
2022-09-22T11:52:26.875Z,1800.00
2022-09-22T11:53:31.876Z,3536.00
2022-09-22T11:54:26.833Z,4940.00
2022-09-22T11:55:26.845Z,3920.00
2022-09-22T11:56:26.817Z,4812.00
2022-09-22T11:57:26.843Z,1972.00
2022-09-22T11:58:26.788Z,1832.00
2022-09-22T11:59:26.815Z,1772.00
2022-09-22T12:00:26.768Z,2972.00
2022-09-22T12:01:26.765Z,1828.00
2022-09-22T12:02:26.954Z,1740.00
2022-09-22T12:03:26.930Z,3500.00
2022-09-22T12:04:31.754Z,3156.00
2022-09-22T12:05:26.712Z,2132.00
2022-09-22T12:06:26.697Z,2676.00
2022-09-22T12:07:26.701Z,2252.00
2022-09-22T12:08:26.673Z,2604.00
2022-09-22T12:09:26.660Z,2340.00
2022-09-22T12:10:26.655Z,5892.00
2022-09-22T12:11:26.661Z,2432.00
2022-09-22T12:12:26.628Z,2156.00
2022-09-22T12:13:26.633Z,1932.00
2022-09-22T12:14:26.604Z,3528.00
2022-09-22T12:15:31.615Z,8672.00
2022-09-22T12:16:26.599Z,13272.00
2022-09-22T12:17:26.575Z,17280.00
2022-09-22T12:18:26.568Z,5384.00
2022-09-22T12:19:26.548Z,3260.00
2022-09-22T12:20:26.548Z,4396.00
2022-09-22T12:21:26.545Z,16608.00
2022-09-22T12:22:26.528Z,17760.00
2022-09-22T12:23:26.525Z,10020.00
2022-09-22T12:24:26.494Z,2460.00
2022-09-22T12:25:47.669Z,5392.00
2022-09-22T12:26:32.525Z,3024.00
2022-09-22T12:27:26.459Z,2580.00
2022-09-22T12:28:26.465Z,3248.00
2022-09-22T12:29:26.457Z,4116.00
2022-09-22T12:30:26.468Z,6544.00
2022-09-22T12:31:26.443Z,14368.00
2022-09-22T12:32:26.417Z,51552.00
2022-09-22T12:33:26.393Z,54880.00
2022-09-22T12:34:26.440Z,58240.00
2022-09-22T12:35:28.789Z,58496.00
2022-09-22T12:36:26.379Z,55072.00
2022-09-22T12:37:31.369Z,53312.00
2022-09-22T12:38:26.422Z,55264.00
2022-09-22T12:39:26.341Z,53952.00
2022-09-22T12:40:26.477Z,55520.00
2022-09-22T12:41:26.314Z,50080.00
2022-09-22T12:42:26.296Z,20608.00
2022-09-22T12:43:26.284Z,3488.00
2022-09-22T12:44:26.290Z,3276.00
2022-09-22T12:45:26.289Z,3092.00
2022-09-22T12:46:26.253Z,3060.00
2022-09-22T12:47:26.240Z,2900.00
2022-09-22T12:48:31.266Z,2640.00
2022-09-22T12:49:26.248Z,2728.00
2022-09-22T12:50:26.205Z,3280.00
2022-09-22T12:51:26.238Z,3824.00
2022-09-22T12:52:26.188Z,4508.00
2022-09-22T12:53:26.228Z,4180.00
2022-09-22T12:54:26.167Z,3628.00
2022-09-22T12:55:26.141Z,4008.00
2022-09-22T12:56:26.168Z,3748.00
2022-09-22T12:57:26.127Z,3596.00
2022-09-22T12:58:26.179Z,3160.00
2022-09-22T12:59:31.134Z,2676.00
2022-09-22T13:00:27.889Z,2412.00
2022-09-22T13:01:26.220Z,2540.00
2022-09-22T13:02:26.089Z,2500.00
2022-09-22T13:03:26.062Z,2556.00
2022-09-22T13:04:26.046Z,2084.00
2022-09-22T13:05:26.044Z,1728.00
2022-09-22T13:06:26.017Z,1504.00
2022-09-22T13:07:26.050Z,1432.00
2022-09-22T13:08:25.996Z,1376.00
2022-09-22T13:09:25.991Z,1348.00
2022-09-22T13:10:30.997Z,1352.00
2022-09-22T13:11:25.983Z,1356.00
2022-09-22T13:12:25.969Z,1356.00
2022-09-22T13:13:25.938Z,1332.00
2022-09-22T13:14:26.144Z,1340.00
2022-09-22T13:15:25.917Z,1344.00
2022-09-22T13:16:25.956Z,1332.00
2022-09-22T13:17:25.932Z,1324.00
2022-09-22T13:18:25.902Z,1324.00
2022-09-22T13:19:25.873Z,1308.00
2022-09-22T13:20:25.935Z,1300.00
2022-09-22T13:21:30.880Z,1320.00
2022-09-22T13:22:25.862Z,1324.00
2022-09-22T13:23:25.837Z,1304.00
2022-09-22T13:24:27.518Z,1288.00
2022-09-22T13:25:25.820Z,1304.00
2022-09-22T13:26:25.810Z,1312.00
2022-09-22T13:27:25.813Z,1296.00
2022-09-22T13:28:25.771Z,1288.00
2022-09-22T13:29:26.087Z,1264.00
2022-09-22T13:30:25.853Z,1296.00
2022-09-22T13:31:25.755Z,1292.00
2022-09-22T13:32:30.763Z,1296.00
2022-09-22T13:33:25.729Z,1276.00
2022-09-22T13:34:25.729Z,1280.00
2022-09-22T13:35:25.751Z,1296.00
2022-09-22T13:36:25.737Z,1292.00
2022-09-22T13:37:25.694Z,1308.00
2022-09-22T13:38:25.708Z,1296.00
2022-09-22T13:39:25.711Z,1300.00
2022-09-22T13:40:25.684Z,1284.00
2022-09-22T13:41:25.651Z,1312.00
2022-09-22T13:42:25.714Z,1344.00
2022-09-22T13:43:30.682Z,1300.00
2022-09-22T13:44:25.642Z,1284.00
2022-09-22T13:45:25.595Z,1280.00
2022-09-22T13:46:25.605Z,1312.00
2022-09-22T13:47:25.578Z,1304.00
2022-09-22T13:48:25.594Z,1316.00
2022-09-22T13:49:25.536Z,1308.00
2022-09-22T13:50:25.563Z,1308.00
2022-09-22T13:51:25.741Z,1320.00
2022-09-22T13:52:25.697Z,1308.00
2022-09-22T13:53:25.709Z,1292.00
2022-09-22T13:54:31.171Z,1280.00
2022-09-22T13:55:25.469Z,1268.00
2022-09-22T13:56:25.455Z,1272.00
2022-09-22T13:57:25.726Z,1276.00
2022-09-22T13:58:25.432Z,1272.00
2022-09-22T13:59:25.420Z,1280.00
2022-09-22T14:00:25.408Z,1292.00
2022-09-22T14:01:25.537Z,1288.00
2022-09-22T14:02:31.168Z,1296.00
2022-09-22T14:03:26.370Z,1292.00
2022-09-22T14:04:25.396Z,1284.00
2022-09-22T14:05:30.433Z,1288.00
2022-09-22T14:06:25.362Z,1284.00
2022-09-22T14:07:25.534Z,1272.00
2022-09-22T14:08:25.331Z,1280.00
2022-09-22T14:09:25.356Z,1272.00
2022-09-22T14:10:25.337Z,1280.00
2022-09-22T14:11:25.295Z,1284.00
2022-09-22T14:12:25.314Z,1276.00
2022-09-22T14:13:25.284Z,1288.00
2022-09-22T14:14:25.261Z,1304.00
2022-09-22T14:15:25.307Z,1292.00
2022-09-22T14:16:30.343Z,1284.00
2022-09-22T14:17:25.242Z,1272.00
2022-09-22T14:18:25.925Z,1288.00
2022-09-22T14:19:25.193Z,1256.00
2022-09-22T14:20:25.206Z,1260.00
2022-09-22T14:21:25.209Z,1256.00
2022-09-22T14:22:25.188Z,1280.00
2022-09-22T14:23:25.159Z,1284.00
2022-09-22T14:24:25.221Z,1280.00
2022-09-22T14:25:25.123Z,1280.00
2022-09-22T14:26:25.111Z,1300.00
2022-09-22T14:27:30.165Z,1304.00
2022-09-22T14:28:25.100Z,1348.00
2022-09-22T14:29:25.075Z,1344.00
2022-09-22T14:30:25.082Z,1328.00
2022-09-22T14:31:25.144Z,1300.00
2022-09-22T14:32:25.050Z,1260.00
2022-09-22T14:33:25.049Z,1224.00
2022-09-22T14:34:25.026Z,1236.00
2022-09-22T14:35:25.028Z,1224.00
2022-09-22T14:36:25.024Z,1216.00
2022-09-22T14:37:24.986Z,1212.00
2022-09-22T14:38:30.022Z,1200.00
2022-09-22T14:39:30.607Z,1196.00
2022-09-22T14:40:26.004Z,1196.00
2022-09-22T14:41:24.940Z,1192.00
2022-09-22T14:42:24.953Z,1184.00
2022-09-22T14:43:24.954Z,1160.00
2022-09-22T14:44:24.907Z,1164.00
2022-09-22T14:45:25.089Z,1180.00
2022-09-22T14:46:25.021Z,1180.00
2022-09-22T14:47:25.129Z,1180.00
2022-09-22T14:48:24.877Z,1176.00
2022-09-22T14:49:29.899Z,1168.00
2022-09-22T14:50:24.859Z,1164.00
2022-09-22T14:51:24.831Z,1160.00
2022-09-22T14:52:25.022Z,1156.00
2022-09-22T14:53:24.830Z,1160.00
2022-09-22T14:54:24.849Z,1148.00
2022-09-22T14:55:24.778Z,1136.00
2022-09-22T14:56:24.811Z,1128.00
2022-09-22T14:57:24.757Z,1132.00
2022-09-22T14:58:24.758Z,1124.00
2022-09-22T14:59:24.861Z,1124.00
2022-09-22T15:00:29.742Z,1112.00
2022-09-22T15:01:24.750Z,1112.00
2022-09-22T15:02:24.765Z,1108.00
2022-09-22T15:03:24.715Z,1104.00
2022-09-22T15:04:24.686Z,1100.00
2022-09-22T15:05:29.367Z,1084.00
2022-09-22T15:06:25.653Z,1076.00
2022-09-22T15:07:24.449Z,1072.00
2022-09-22T15:08:24.520Z,1052.00
2022-09-22T15:09:24.422Z,1052.00
2022-09-22T15:10:24.416Z,1036.00
2022-09-22T15:11:29.457Z,1040.00
2022-09-22T15:12:24.387Z,1044.00
2022-09-22T15:13:25.081Z,1040.00
2022-09-22T15:14:24.390Z,1032.00
2022-09-22T15:15:24.350Z,1032.00
2022-09-22T15:16:24.418Z,1036.00
2022-09-22T15:17:24.377Z,1028.00
2022-09-22T15:18:27.293Z,1020.00
2022-09-22T15:19:26.685Z,1016.00
2022-09-22T15:20:24.363Z,1012.00
2022-09-22T15:21:24.290Z,1004.00
2022-09-22T15:22:29.300Z,996.00
2022-09-22T15:23:24.274Z,988.00
2022-09-22T15:24:26.116Z,976.00
2022-09-22T15:25:24.279Z,968.00
2022-09-22T15:26:25.417Z,968.00
2022-09-22T15:27:24.222Z,956.00
2022-09-22T15:28:24.260Z,956.00
2022-09-22T15:29:24.262Z,952.00
2022-09-22T15:30:24.187Z,948.00
2022-09-22T15:31:24.333Z,944.00
2022-09-22T15:32:24.166Z,944.00
2022-09-22T15:33:29.485Z,936.00
2022-09-22T15:34:24.307Z,936.00
2022-09-22T15:35:24.154Z,932.00
2022-09-22T15:36:24.160Z,924.00
2022-09-22T15:37:24.111Z,924.00
2022-09-22T15:38:24.103Z,912.00
2022-09-22T15:39:24.173Z,908.00
2022-09-22T15:40:24.136Z,900.00
2022-09-22T15:41:24.076Z,892.00
2022-09-22T15:42:24.244Z,884.00
2022-09-22T15:43:24.244Z,884.00
2022-09-22T15:44:29.260Z,876.00
2022-09-22T15:45:24.217Z,872.00
2022-09-22T15:46:24.214Z,864.00
2022-09-22T15:47:24.194Z,864.00
2022-09-22T15:48:24.182Z,856.00
2022-09-22T15:49:24.182Z,844.00
2022-09-22T15:50:24.164Z,836.00
2022-09-22T15:51:24.159Z,828.00
2022-09-22T15:52:24.139Z,828.00
2022-09-22T15:53:24.130Z,808.00
2022-09-22T15:54:24.122Z,808.00
2022-09-22T15:55:29.162Z,804.00
2022-09-22T15:56:24.099Z,796.00
2022-09-22T15:57:24.086Z,792.00
2022-09-22T15:58:24.072Z,784.00
2022-09-22T15:59:24.078Z,780.00
2022-09-22T16:00:24.088Z,768.00
2022-09-22T16:01:24.063Z,760.00
2022-09-22T16:02:24.026Z,748.00
2022-09-22T16:03:24.158Z,748.00
2022-09-22T16:04:24.007Z,736.00
2022-09-22T16:05:24.028Z,732.00
2022-09-22T16:06:29.003Z,716.00
2022-09-22T16:07:23.986Z,712.00
2022-09-22T16:08:23.967Z,708.00
2022-09-22T16:09:23.989Z,696.00
2022-09-22T16:10:23.956Z,680.00
2022-09-22T16:11:23.961Z,680.00
2022-09-22T16:12:23.915Z,668.00
2022-09-22T16:13:23.901Z,664.00
2022-09-22T16:14:23.894Z,656.00
2022-09-22T16:15:24.020Z,648.00
2022-09-22T16:16:23.940Z,636.00
2022-09-22T16:17:28.879Z,628.00
2022-09-22T16:18:23.854Z,620.00